Time;durP1;ratioP1;P1;durP2;ratioP2;P2;SDS_P1;SDS_P2;PMS_P1;PMS_P2;Temp;Humidity;BMP_temperature;BMP_pressure;BME280_temperature;BME280_humidity;BME280_pressure;Samples;Min_cycle;Max_cycle;Signal;HPM_P1;HPM_P2
2022/03/13 00:02:15;;;;;;;9.20;5.90;;;9.40;43.60;;;;;;5073464;28;20072;-73
2022/03/13 00:04:43;;;;;;;10.25;6.28;;;9.30;42.50;;;;;;5073859;28;20024;-67
2022/03/13 00:07:19;;;;;;;11.55;6.10;;;9.30;42.30;;;;;;5073633;28;20048;-66
2022/03/13 00:09:50;;;;;;;11.10;6.20;;;9.30;43.70;;;;;;5073563;28;20040;-65
2022/03/13 00:12:25;;;;;;;9.52;5.82;;;9.30;42.60;;;;;;5072317;28;20036;-69
2022/03/13 00:14:53;;;;;;;11.63;6.28;;;9.30;42.30;;;;;;5073564;28;20044;-76
2022/03/13 00:17:21;;;;;;;12.50;5.72;;;9.30;42.20;;;;;;5072619;28;20082;-72
2022/03/13 00:19:49;;;;;;;9.63;6.45;;;9.40;42.50;;;;;;5073457;28;20071;-73
2022/03/13 00:22:15;;;;;;;12.25;6.78;;;9.30;42.40;;;;;;5073351;28;20350;-66
2022/03/13 00:24:41;;;;;;;15.40;7.13;;;9.40;42.60;;;;;;5073473;28;20024;-66
2022/03/13 00:27:08;;;;;;;11.88;7.40;;;9.40;42.50;;;;;;5073429;28;20049;-73
2022/03/13 00:29:36;;;;;;;12.52;7.80;;;9.40;42.70;;;;;;5073169;28;20037;-68
2022/03/13 00:32:03;;;;;;;14.30;7.90;;;9.40;42.70;;;;;;5073338;28;20065;-71
2022/03/13 00:34:29;;;;;;;12.32;6.78;;;9.40;43.30;;;;;;5073696;28;20048;-69
2022/03/13 00:36:54;;;;;;;9.75;6.75;;;9.40;43.20;;;;;;5073816;28;20035;-65
2022/03/13 00:39:20;;;;;;;12.15;6.60;;;9.50;43.00;;;;;;5073193;28;20036;-67
2022/03/13 00:41:46;;;;;;;10.02;6.63;;;9.50;42.90;;;;;;5073514;28;20028;-71
2022/03/13 00:44:13;;;;;;;12.20;6.97;;;9.40;42.90;;;;;;5073192;28;20115;-66
2022/03/13 00:46:39;;;;;;;9.55;6.55;;;9.40;42.80;;;;;;5073528;28;20028;-67
2022/03/13 00:49:04;;;;;;;10.40;6.80;;;9.40;42.90;;;;;;5073155;28;20032;-66
2022/03/13 00:51:31;;;;;;;11.65;6.13;;;9.30;42.80;;;;;;5073240;28;20551;-70
2022/03/13 00:53:57;;;;;;;10.95;6.63;;;9.30;44.60;;;;;;5073263;28;20473;-66
2022/03/13 00:56:22;;;;;;;9.80;6.20;;;9.30;43.00;;;;;;5072829;28;20055;-68
2022/03/13 00:58:48;;;;;;;12.27;6.63;;;9.30;43.10;;;;;;5073059;28;20035;-66
2022/03/13 01:01:16;;;;;;;10.27;6.45;;;9.30;43.10;;;;;;5073033;28;20490;-70
2022/03/13 01:03:41;;;;;;;11.18;6.68;;;9.30;44.40;;;;;;5073050;28;20028;-69
2022/03/13 01:06:10;;;;;;;10.75;6.53;;;9.30;43.00;;;;;;5073135;28;20077;-66
2022/03/13 01:08:36;;;;;;;9.27;5.93;;;9.30;43.20;;;;;;5075935;28;20032;-67
2022/03/13 01:11:03;;;;;;;12.25;6.88;;;9.30;43.00;;;;;;5077094;28;20028;-66
2022/03/13 01:13:31;;;;;;;11.48;6.60;;;9.20;42.70;;;;;;5077176;28;20028;-67
2022/03/13 01:16:22;;;;;;;10.32;6.28;;;9.20;44.20;;;;;;5077794;28;20020;-66
2022/03/13 01:18:52;;;;;;;10.60;6.13;;;9.20;44.40;;;;;;5077016;28;20481;-66
2022/03/13 01:21:19;;;;;;;12.82;7.03;;;9.20;44.60;;;;;;5075379;28;20029;-66
2022/03/13 01:24:00;;;;;;;8.55;5.88;;;9.10;42.60;;;;;;5076730;28;20020;-66
2022/03/13 01:26:26;;;;;;;10.63;5.72;;;9.10;43.00;;;;;;5076989;28;20028;-66
2022/03/13 01:28:59;;;;;;;9.15;6.00;;;9.00;43.40;;;;;;5076742;28;20027;-65
2022/03/13 01:31:29;;;;;;;9.55;6.47;;;9.00;42.60;;;;;;5076718;28;20029;-65
2022/03/13 01:33:56;;;;;;;9.38;6.22;;;9.00;42.80;;;;;;5076365;28;20028;-65
2022/03/13 01:36:23;;;;;;;10.30;6.13;;;9.00;42.80;;;;;;5076647;28;20055;-67
2022/03/13 01:38:53;;;;;;;11.45;6.50;;;8.90;43.20;;;;;;5076366;28;20020;-65
2022/03/13 01:41:19;;;;;;;9.85;5.90;;;8.90;42.90;;;;;;5076428;28;20028;-66
2022/03/13 01:43:45;;;;;;;10.30;6.18;;;8.90;43.10;;;;;;5076496;28;20032;-65
2022/03/13 01:46:12;;;;;;;10.65;6.53;;;9.00;43.60;;;;;;5074837;28;20028;-71
2022/03/13 01:48:51;;;;;;;10.73;6.55;;;8.90;43.40;;;;;;5075905;28;20025;-70
2022/03/13 01:51:16;;;;;;;7.63;5.50;;;8.90;43.20;;;;;;5076145;28;20095;-65
2022/03/13 01:53:43;;;;;;;9.43;5.80;;;8.90;43.60;;;;;;5076499;28;20113;-66
2022/03/13 01:56:08;;;;;;;10.20;6.20;;;8.90;43.50;;;;;;5076372;28;20493;-70
2022/03/13 01:58:35;;;;;;;10.05;6.00;;;8.90;43.50;;;;;;5074705;28;20032;-67
2022/03/13 02:01:01;;;;;;;9.77;5.88;;;8.90;43.10;;;;;;5076077;28;20029;-65
2022/03/13 02:03:28;;;;;;;10.82;5.90;;;8.90;43.60;;;;;;5075799;28;20465;-78
2022/03/13 02:05:54;;;;;;;9.02;5.63;;;8.80;43.20;;;;;;5076020;28;20359;-69
2022/03/13 02:08:22;;;;;;;8.90;5.50;;;8.80;43.40;;;;;;5074703;28;20470;-65
2022/03/13 02:10:48;;;;;;;8.23;5.60;;;8.80;43.10;;;;;;5075706;28;20385;-66
2022/03/13 02:13:17;;;;;;;7.38;5.05;;;8.70;43.00;;;;;;5075871;28;20024;-78
2022/03/13 02:15:43;;;;;;;10.02;5.35;;;8.70;43.10;;;;;;5075617;28;20099;-79
2022/03/13 02:18:09;;;;;;;8.10;5.40;;;8.70;43.00;;;;;;5075751;28;20103;-65
2022/03/13 02:20:44;;;;;;;8.95;5.50;;;8.70;43.00;;;;;;5074506;28;20032;-72
2022/03/13 02:23:20;;;;;;;7.55;5.00;;;8.80;42.90;;;;;;5075815;28;20096;-74
2022/03/13 02:25:51;;;;;;;7.75;5.15;;;8.70;42.50;;;;;;5075760;28;20116;-75
2022/03/13 02:28:22;;;;;;;8.82;5.15;;;8.80;42.40;;;;;;5057433;28;20120;-68
2022/03/13 02:30:51;;;;;;;6.57;4.45;;;8.80;42.30;;;;;;5075469;28;20056;-75
2022/03/13 02:33:19;;;;;;;9.88;4.78;;;8.80;42.20;;;;;;5075438;28;20042;-66
2022/03/13 02:35:59;;;;;;;9.70;5.10;;;8.80;42.10;;;;;;5075672;28;20017;-67
2022/03/13 02:38:26;;;;;;;9.27;5.25;;;8.80;43.80;;;;;;5075615;28;20033;-66
2022/03/13 02:40:53;;;;;;;8.60;5.28;;;8.70;41.80;;;;;;5075599;28;20081;-66
2022/03/13 02:43:19;;;;;;;10.20;5.03;;;8.80;42.10;;;;;;5075386;28;20020;-69
2022/03/13 02:45:45;;;;;;;9.27;5.32;;;8.70;42.40;;;;;;5075166;28;20394;-65
2022/03/13 02:48:11;;;;;;;8.90;5.20;;;8.70;42.50;;;;;;5074998;28;20020;-65
2022/03/13 02:50:38;;;;;;;7.70;5.10;;;8.60;42.40;;;;;;5074994;28;20099;-69
2022/03/13 02:53:05;;;;;;;8.52;5.20;;;8.60;42.60;;;;;;5074916;28;20056;-66
2022/03/13 02:55:32;;;;;;;8.35;5.38;;;8.60;42.70;;;;;;5074665;28;20028;-65
2022/03/13 02:57:58;;;;;;;12.32;5.65;;;8.60;42.60;;;;;;5074957;28;20480;-65
2022/03/13 03:00:46;;;;;;;10.02;6.00;;;8.50;43.00;;;;;;5074828;28;20447;-74
2022/03/13 03:03:21;;;;;;;8.80;5.00;;;8.50;44.70;;;;;;5074894;28;20036;-66
2022/03/13 03:05:47;;;;;;;8.30;5.28;;;8.50;43.20;;;;;;5074834;28;20029;-66
2022/03/13 03:08:13;;;;;;;6.95;5.00;;;8.40;43.00;;;;;;5074732;28;20024;-65
2022/03/13 03:10:39;;;;;;;10.30;5.40;;;8.40;43.30;;;;;;5074471;28;20492;-66
2022/03/13 03:13:10;;;;;;;7.72;5.07;;;8.40;43.30;;;;;;5074403;28;20028;-65
2022/03/13 03:15:36;;;;;;;8.02;5.35;;;8.40;43.30;;;;;;5074643;28;20063;-77
2022/03/13 03:18:06;;;;;;;10.10;5.22;;;8.30;43.40;;;;;;5074631;28;20388;-67
2022/03/13 03:20:32;;;;;;;9.75;5.47;;;8.30;43.30;;;;;;5073179;28;20029;-65
2022/03/13 03:22:58;;;;;;;7.55;5.20;;;8.30;43.60;;;;;;5074279;28;20016;-66
2022/03/13 03:25:26;;;;;;;8.30;5.20;;;8.30;43.50;;;;;;5074031;28;20024;-65
2022/03/13 03:27:53;;;;;;;7.57;5.13;;;8.20;43.30;;;;;;5074313;28;20025;-65
2022/03/13 03:30:28;;;;;;;8.45;5.10;;;8.20;43.20;;;;;;5073792;28;20025;-65
2022/03/13 03:32:55;;;;;;;8.55;5.28;;;8.20;43.40;;;;;;5074076;28;20465;-65
2022/03/13 03:35:23;;;;;;;8.73;4.60;;;8.20;43.10;;;;;;5073884;28;20042;-72
2022/03/13 03:37:57;;;;;;;10.65;6.13;;;8.10;43.40;;;;;;5074220;28;20059;-73
2022/03/13 03:40:26;;;;;;;7.60;5.35;;;8.10;43.40;;;;;;5072795;28;20064;-64
2022/03/13 03:42:56;;;;;;;8.00;5.78;;;8.10;44.00;;;;;;5073724;28;20025;-67
2022/03/13 03:45:22;;;;;;;8.55;5.28;;;8.00;44.20;;;;;;5073879;28;20028;-67
2022/03/13 03:47:48;;;;;;;8.73;5.97;;;8.00;44.50;;;;;;5073673;28;20021;-66
2022/03/13 03:50:14;;;;;;;9.88;5.68;;;7.90;44.60;;;;;;5073613;28;20078;-65
2022/03/13 03:52:41;;;;;;;7.68;5.38;;;7.90;44.70;;;;;;5074243;28;20035;-65
2022/03/13 03:55:07;;;;;;;7.63;5.10;;;7.90;45.00;;;;;;5073973;28;20025;-74
2022/03/13 03:57:33;;;;;;;10.10;5.30;;;7.90;44.90;;;;;;5073840;28;20127;-77
2022/03/13 03:59:59;;;;;;;9.40;6.40;;;7.90;44.70;;;;;;5074046;28;20115;-80
2022/03/13 04:02:25;;;;;;;9.50;5.45;;;7.90;44.70;;;;;;5074167;28;20020;-77
2022/03/13 04:04:51;;;;;;;9.73;6.10;;;7.90;45.00;;;;;;5073862;28;20131;-77
2022/03/13 04:07:18;;;;;;;8.48;5.63;;;7.90;45.10;;;;;;5072528;28;20029;-66
2022/03/13 04:09:43;;;;;;;10.23;5.85;;;7.90;45.10;;;;;;5073346;28;20037;-65
2022/03/13 04:12:09;;;;;;;7.97;5.55;;;7.90;44.80;;;;;;5073425;28;20025;-67
2022/03/13 04:14:35;;;;;;;8.65;6.10;;;7.90;45.30;;;;;;5073464;28;20028;-66
2022/03/13 04:17:02;;;;;;;7.90;5.45;;;7.90;45.40;;;;;;5073407;28;20020;-72
2022/03/13 04:19:30;;;;;;;11.68;6.65;;;7.90;45.20;;;;;;5073183;28;20036;-77
2022/03/13 04:21:56;;;;;;;11.00;6.32;;;7.90;46.00;;;;;;5073697;28;20079;-64
2022/03/13 04:24:22;;;;;;;10.23;6.00;;;7.90;46.00;;;;;;5073343;28;20024;-66
2022/03/13 04:26:49;;;;;;;9.40;6.18;;;7.80;45.80;;;;;;5071879;28;20367;-69
2022/03/13 04:29:18;;;;;;;10.95;6.30;;;7.80;45.50;;;;;;5073286;28;20032;-78
2022/03/13 04:31:46;;;;;;;10.82;6.63;;;7.80;45.90;;;;;;5073480;28;20063;-72
2022/03/13 04:34:13;;;;;;;10.68;6.35;;;7.80;45.90;;;;;;5073457;28;20101;-79
2022/03/13 04:36:41;;;;;;;12.27;6.18;;;7.80;45.90;;;;;;5073293;28;20471;-75
2022/03/13 04:39:08;;;;;;;9.82;6.03;;;7.70;46.10;;;;;;5073286;28;20036;-71
2022/03/13 04:41:34;;;;;;;9.35;5.75;;;7.70;45.80;;;;;;5072963;28;20351;-71
2022/03/13 04:44:00;;;;;;;9.40;5.80;;;7.70;45.60;;;;;;5071983;28;20025;-80
2022/03/13 04:46:26;;;;;;;8.70;5.78;;;7.70;45.60;;;;;;5073281;28;20078;-69
2022/03/13 04:48:53;;;;;;;9.55;5.68;;;7.70;45.70;;;;;;5073281;28;20036;-70
2022/03/13 04:51:19;;;;;;;8.85;5.82;;;7.60;45.70;;;;;;5073199;28;20047;-66
2022/03/13 04:53:45;;;;;;;9.68;6.22;;;7.70;46.00;;;;;;5073277;28;20029;-69
2022/03/13 04:56:12;;;;;;;10.65;5.82;;;7.60;45.90;;;;;;5072891;28;20110;-71
2022/03/13 04:58:38;;;;;;;10.15;5.70;;;7.60;45.70;;;;;;5072958;28;20033;-65
2022/03/13 05:01:04;;;;;;;7.93;5.70;;;7.60;46.10;;;;;;5073077;28;20434;-67
2022/03/13 05:03:33;;;;;;;8.27;5.78;;;7.50;46.00;;;;;;5073004;28;20058;-64
2022/03/13 05:05:59;;;;;;;11.18;5.57;;;7.50;45.90;;;;;;5073038;28;20028;-70
2022/03/13 05:08:26;;;;;;;9.73;5.90;;;7.50;46.00;;;;;;5072922;28;20024;-72
2022/03/13 05:10:52;;;;;;;13.00;6.05;;;7.50;45.80;;;;;;5073431;28;20025;-69
2022/03/13 05:13:19;;;;;;;7.78;5.28;;;7.50;46.00;;;;;;5072907;28;20029;-67
2022/03/13 05:15:47;;;;;;;11.88;6.65;;;7.50;46.20;;;;;;5072747;28;20025;-66
2022/03/13 05:18:13;;;;;;;8.73;5.85;;;7.50;45.90;;;;;;5072715;28;20028;-69
2022/03/13 05:20:40;;;;;;;9.57;6.13;;;7.50;45.80;;;;;;5073052;28;20055;-66
2022/03/13 05:23:10;;;;;;;9.15;6.05;;;7.50;46.00;;;;;;5073087;28;20035;-68
2022/03/13 05:25:37;;;;;;;10.65;5.47;;;7.50;46.10;;;;;;5073082;28;20029;-69
2022/03/13 05:28:05;;;;;;;9.68;5.47;;;7.40;45.90;;;;;;5072908;28;20025;-72
2022/03/13 05:30:32;;;;;;;11.57;5.63;;;7.40;46.40;;;;;;5073110;28;20465;-73
2022/03/13 05:32:58;;;;;;;11.40;6.00;;;7.40;46.10;;;;;;5073073;28;20040;-68
2022/03/13 05:35:25;;;;;;;9.45;5.80;;;7.40;46.30;;;;;;5072840;28;20044;-65
2022/03/13 05:37:51;;;;;;;9.65;5.88;;;7.40;46.40;;;;;;5071581;28;20025;-65
2022/03/13 05:40:19;;;;;;;9.25;5.78;;;7.40;46.40;;;;;;5072308;28;20036;-67
2022/03/13 05:42:49;;;;;;;9.02;5.93;;;7.50;46.30;;;;;;5072386;28;20036;-67
2022/03/13 05:45:20;;;;;;;8.75;5.68;;;7.40;46.10;;;;;;5072615;28;20024;-75
2022/03/13 05:47:51;;;;;;;10.07;5.70;;;7.50;46.40;;;;;;5072392;28;20226;-67
2022/03/13 05:50:18;;;;;;;11.60;5.80;;;7.40;46.30;;;;;;5072464;28;20021;-66
2022/03/13 05:52:45;;;;;;;12.50;5.70;;;7.40;46.10;;;;;;5072660;28;20024;-66
2022/03/13 05:55:13;;;;;;;9.10;5.68;;;7.40;46.40;;;;;;5074643;28;20131;-65
2022/03/13 05:57:39;;;;;;;9.57;6.00;;;7.40;46.20;;;;;;5075938;28;20501;-65
2022/03/13 06:00:08;;;;;;;8.30;5.80;;;7.40;45.90;;;;;;5075787;28;20040;-66
2022/03/13 06:02:38;;;;;;;9.68;5.72;;;7.40;46.20;;;;;;5076420;28;20021;-70
2022/03/13 06:05:05;;;;;;;8.52;5.22;;;7.40;46.10;;;;;;5076222;28;20021;-79
2022/03/13 06:07:32;;;;;;;9.10;5.80;;;7.40;46.10;;;;;;5075723;28;20378;-74
2022/03/13 06:10:02;;;;;;;8.55;5.70;;;7.40;46.20;;;;;;5075640;28;20021;-67
2022/03/13 06:12:29;;;;;;;11.45;6.00;;;7.40;46.10;;;;;;5075506;28;20119;-71
2022/03/13 06:14:54;;;;;;;10.90;5.97;;;7.50;46.50;;;;;;5075771;28;20055;-67
2022/03/13 06:17:20;;;;;;;9.50;5.68;;;7.50;46.50;;;;;;5075711;28;20414;-69
2022/03/13 06:19:45;;;;;;;9.13;5.47;;;7.50;46.30;;;;;;5075703;28;20037;-70
2022/03/13 06:22:12;;;;;;;9.80;5.95;;;7.60;46.30;;;;;;5075715;28;20024;-75
2022/03/13 06:24:41;;;;;;;10.38;6.65;;;7.70;46.00;;;;;;5075556;28;20055;-71
2022/03/13 06:27:07;;;;;;;8.70;5.93;;;7.70;46.20;;;;;;5075322;28;20025;-72
2022/03/13 06:29:34;;;;;;;9.75;6.15;;;7.80;45.70;;;;;;5075288;28;20078;-72
2022/03/13 06:32:00;;;;;;;10.05;5.93;;;7.80;45.90;;;;;;5075501;28;20025;-66
2022/03/13 06:34:26;;;;;;;10.35;5.57;;;7.90;45.60;;;;;;5075237;28;20028;-66
2022/03/13 06:36:51;;;;;;;11.18;6.32;;;8.00;45.50;;;;;;5075353;28;20025;-68
2022/03/13 06:39:18;;;;;;;9.35;5.88;;;8.20;45.30;;;;;;5075107;28;20048;-67
2022/03/13 06:41:43;;;;;;;9.98;5.93;;;8.30;44.90;;;;;;5075184;28;20028;-66
2022/03/13 06:44:09;;;;;;;13.02;5.20;;;8.40;44.60;;;;;;5077943;28;20016;-73
2022/03/13 06:46:37;;;;;;;7.75;5.22;;;8.50;44.00;;;;;;5075506;28;20032;-76
2022/03/13 06:49:05;;;;;;;9.70;5.55;;;8.60;43.80;;;;;;5075219;28;20025;-74
2022/03/13 06:51:39;;;;;;;8.93;5.93;;;8.70;44.40;;;;;;5075010;28;20086;-69
2022/03/13 06:54:06;;;;;;;9.35;5.50;;;8.80;44.40;;;;;;5074715;28;20073;-66
2022/03/13 06:56:33;;;;;;;9.13;5.68;;;8.90;42.90;;;;;;5074691;28;20068;-66
2022/03/13 06:59:03;;;;;;;10.15;5.97;;;9.10;42.80;;;;;;5074628;28;20032;-71
2022/03/13 07:01:33;;;;;;;11.13;6.05;;;9.20;42.90;;;;;;5075028;28;20546;-69
2022/03/13 07:03:58;;;;;;;10.05;6.80;;;9.30;42.40;;;;;;5074910;28;20025;-65
2022/03/13 07:06:24;;;;;;;12.10;6.28;;;9.30;42.80;;;;;;5074070;28;20470;-66
2022/03/13 07:08:50;;;;;;;11.07;6.20;;;9.50;42.00;;;;;;5074410;28;20032;-76
2022/03/13 07:11:16;;;;;;;11.95;7.10;;;9.60;42.30;;;;;;5074459;28;20025;-74
2022/03/13 07:13:44;;;;;;;10.40;6.47;;;9.60;41.70;;;;;;5073150;28;20363;-67
2022/03/13 07:16:10;;;;;;;10.98;6.82;;;9.60;41.80;;;;;;5074288;28;20037;-66
2022/03/13 07:18:36;;;;;;;9.75;6.47;;;9.70;41.80;;;;;;5073981;28;20168;-68
2022/03/13 07:21:02;;;;;;;9.38;6.72;;;9.80;41.50;;;;;;5074288;28;20481;-67
2022/03/13 07:23:28;;;;;;;11.90;7.00;;;9.90;41.40;;;;;;5074014;28;20066;-66
2022/03/13 07:25:54;;;;;;;13.90;7.15;;;9.90;41.50;;;;;;5073837;28;20029;-66
2022/03/13 07:28:20;;;;;;;13.20;6.82;;;10.00;40.70;;;;;;5073660;28;20029;-67
2022/03/13 07:30:45;;;;;;;9.82;6.95;;;10.20;40.40;;;;;;5073819;28;20481;-65
2022/03/13 07:33:11;;;;;;;13.60;7.55;;;10.30;40.40;;;;;;5073908;28;20029;-66
2022/03/13 07:35:38;;;;;;;12.35;7.95;;;10.30;40.20;;;;;;5073954;28;20412;-69
2022/03/13 07:38:04;;;;;;;10.68;7.15;;;10.40;40.30;;;;;;5073822;28;20024;-66
2022/03/13 07:40:30;;;;;;;10.70;7.75;;;10.40;40.30;;;;;;5073578;28;20063;-66
2022/03/13 07:42:57;;;;;;;13.07;8.00;;;10.40;40.40;;;;;;5073809;28;20024;-66
2022/03/13 07:45:24;;;;;;;9.93;6.93;;;10.50;40.60;;;;;;5073427;28;20109;-66
2022/03/13 07:47:50;;;;;;;12.02;6.78;;;10.50;40.20;;;;;;5073534;28;20550;-68
2022/03/13 07:50:16;;;;;;;12.13;6.88;;;10.60;40.30;;;;;;5072435;28;20033;-67
2022/03/13 07:52:42;;;;;;;9.27;6.65;;;10.60;40.30;;;;;;5073611;28;20346;-66
2022/03/13 07:55:09;;;;;;;13.60;7.03;;;10.60;40.30;;;;;;5073596;28;20032;-78
2022/03/13 07:57:35;;;;;;;11.18;7.03;;;10.70;40.20;;;;;;5072037;28;20097;-76
2022/03/13 08:00:01;;;;;;;9.15;6.68;;;10.70;40.30;;;;;;5071929;28;20448;-76
2022/03/13 08:02:31;;;;;;;12.68;6.45;;;10.70;40.50;;;;;;5072253;28;20052;-74
2022/03/13 08:04:56;;;;;;;9.85;6.47;;;10.70;41.00;;;;;;5073372;28;20473;-67
2022/03/13 08:07:22;;;;;;;13.35;7.05;;;10.70;40.20;;;;;;5073394;28;20039;-68
2022/03/13 08:09:48;;;;;;;10.20;7.00;;;10.70;40.20;;;;;;5073117;28;20090;-67
2022/03/13 08:12:15;;;;;;;9.68;6.05;;;10.70;40.20;;;;;;5073457;28;20017;-67
2022/03/13 08:14:41;;;;;;;8.15;5.68;;;10.70;40.60;;;;;;5073157;28;20486;-65
2022/03/13 08:17:06;;;;;;;12.00;6.40;;;10.60;40.10;;;;;;5072610;28;20104;-66
2022/03/13 08:19:32;;;;;;;10.88;6.13;;;10.70;40.30;;;;;;5073080;28;20036;-65
2022/03/13 08:21:57;;;;;;;11.13;7.55;;;10.60;40.10;;;;;;5073174;28;20027;-66
2022/03/13 08:24:25;;;;;;;12.05;6.28;;;10.60;40.30;;;;;;5072931;28;20376;-68
2022/03/13 08:26:51;;;;;;;16.02;6.97;;;10.70;40.70;;;;;;5073276;28;20085;-68
2022/03/13 08:29:17;;;;;;;9.77;6.47;;;10.70;40.40;;;;;;5073265;28;20103;-68
2022/03/13 08:31:43;;;;;;;12.93;6.30;;;10.70;40.20;;;;;;5073299;28;20471;-67
2022/03/13 08:34:09;;;;;;;11.70;6.55;;;10.70;40.40;;;;;;5072970;28;20024;-66
2022/03/13 08:36:43;;;;;;;9.27;6.38;;;10.80;40.00;;;;;;5072899;28;20393;-66
2022/03/13 08:39:09;;;;;;;12.18;7.18;;;10.80;40.00;;;;;;5072578;28;20032;-67
2022/03/13 08:41:35;;;;;;;12.70;6.93;;;10.80;39.90;;;;;;5072800;28;20484;-68
2022/03/13 08:44:03;;;;;;;11.68;7.18;;;10.90;40.10;;;;;;5073308;28;20028;-65
2022/03/13 08:46:28;;;;;;;10.25;6.43;;;10.90;40.00;;;;;;5072786;28;20111;-67
2022/03/13 08:48:54;;;;;;;11.80;6.60;;;10.90;39.60;;;;;;5072510;28;20025;-66
2022/03/13 08:51:23;;;;;;;9.55;6.45;;;11.00;39.60;;;;;;5072624;28;20461;-72
2022/03/13 08:53:50;;;;;;;11.45;6.47;;;11.10;39.40;;;;;;5072543;28;20039;-65
2022/03/13 08:56:16;;;;;;;9.32;6.28;;;11.10;39.60;;;;;;5072203;28;20521;-65
2022/03/13 08:58:42;;;;;;;7.95;5.28;;;11.20;39.40;;;;;;5072275;28;20020;-66
2022/03/13 09:01:08;;;;;;;8.40;5.57;;;11.20;39.30;;;;;;5072321;28;20124;-66
2022/03/13 09:03:34;;;;;;;13.43;6.22;;;11.30;39.50;;;;;;5072627;28;20358;-65
2022/03/13 09:06:00;;;;;;;10.93;5.95;;;11.30;39.40;;;;;;5072490;28;20036;-68
2022/03/13 09:08:26;;;;;;;10.50;5.60;;;11.30;39.30;;;;;;5072997;28;20029;-65
2022/03/13 09:10:53;;;;;;;8.15;5.40;;;11.40;39.30;;;;;;5072800;28;20029;-66
2022/03/13 09:13:20;;;;;;;11.00;6.65;;;11.40;39.30;;;;;;5072663;28;20048;-67
2022/03/13 09:15:47;;;;;;;10.48;5.55;;;11.50;39.30;;;;;;5072321;28;20462;-66
2022/03/13 09:18:13;;;;;;;8.45;5.70;;;11.50;39.20;;;;;;5072378;28;20021;-67
2022/03/13 09:20:39;;;;;;;9.00;5.80;;;11.60;39.10;;;;;;5072617;28;20128;-67
2022/03/13 09:23:06;;;;;;;9.02;5.45;;;11.60;39.30;;;;;;5072409;28;20036;-65
2022/03/13 09:25:32;;;;;;;9.43;5.40;;;11.70;39.10;;;;;;5072611;28;20029;-66
2022/03/13 09:27:58;;;;;;;8.15;5.30;;;11.80;38.80;;;;;;5072906;28;20031;-71
2022/03/13 09:30:24;;;;;;;7.65;5.60;;;11.90;39.00;;;;;;5076755;28;20094;-67
2022/03/13 09:32:51;;;;;;;8.52;5.57;;;12.00;39.10;;;;;;5078085;28;20031;-66
2022/03/13 09:35:17;;;;;;;9.55;5.70;;;12.00;38.70;;;;;;5076508;28;20028;-67
2022/03/13 09:37:43;;;;;;;10.80;5.63;;;12.00;38.70;;;;;;5076124;28;20029;-68
2022/03/13 09:40:10;;;;;;;8.07;5.25;;;12.10;38.80;;;;;;5076365;28;20028;-66
2022/03/13 09:42:37;;;;;;;8.05;4.90;;;12.10;38.80;;;;;;5075872;28;20040;-68
2022/03/13 09:45:03;;;;;;;6.82;4.97;;;12.20;38.90;;;;;;5075999;28;20104;-68
2022/03/13 09:47:30;;;;;;;8.93;5.15;;;12.30;38.70;;;;;;5076209;28;20458;-67
2022/03/13 09:49:56;;;;;;;10.07;5.97;;;12.40;38.80;;;;;;5075784;28;20542;-66
2022/03/13 09:52:23;;;;;;;9.88;5.63;;;12.50;39.00;;;;;;5075586;28;20458;-72
2022/03/13 09:54:49;;;;;;;8.70;4.90;;;12.60;39.20;;;;;;5075680;28;20032;-76
2022/03/13 09:57:17;;;;;;;10.40;5.85;;;12.60;39.00;;;;;;5074118;28;20048;-78
2022/03/13 09:59:45;;;;;;;9.35;5.50;;;12.70;38.90;;;;;;5075738;28;20035;-74
2022/03/13 10:02:11;;;;;;;8.35;5.03;;;12.80;39.20;;;;;;5074322;28;20016;-71
2022/03/13 10:04:37;;;;;;;9.32;5.68;;;12.80;39.10;;;;;;5075865;28;20039;-66
2022/03/13 10:07:11;;;;;;;7.55;4.90;;;12.90;39.30;;;;;;5075738;28;20469;-68
2022/03/13 10:09:43;;;;;;;8.27;5.35;;;13.00;38.70;;;;;;5075501;28;20035;-68
2022/03/13 10:12:10;;;;;;;10.50;5.97;;;13.00;39.20;;;;;;5075492;28;20028;-68
2022/03/13 10:15:03;;;;;;;10.02;5.28;;;13.00;39.00;;;;;;5075581;28;20032;-67
2022/03/13 10:17:32;;;;;;;8.15;5.28;;;13.10;38.70;;;;;;5075458;28;20103;-67
2022/03/13 10:20:16;;;;;;;12.98;5.60;;;13.10;39.30;;;;;;5075405;28;20156;-70
2022/03/13 10:22:44;;;;;;;9.15;5.38;;;13.10;39.60;;;;;;5075209;28;20101;-66
2022/03/13 10:25:13;;;;;;;8.73;5.40;;;13.20;39.70;;;;;;5075210;28;20496;-67
2022/03/13 10:27:39;;;;;;;11.30;5.47;;;13.20;39.40;;;;;;5075322;28;20344;-69
2022/03/13 10:30:09;;;;;;;8.10;5.25;;;13.30;39.60;;;;;;5074900;28;20024;-65
2022/03/13 10:32:38;;;;;;;12.50;5.95;;;13.40;39.20;;;;;;5075212;28;20067;-69
2022/03/13 10:35:05;;;;;;;9.00;4.88;;;13.50;39.70;;;;;;5075200;28;20024;-69
2022/03/13 10:37:42;;;;;;;7.85;5.13;;;13.50;39.20;;;;;;5074957;28;20032;-67
2022/03/13 10:40:21;;;;;;;9.73;5.22;;;13.50;38.40;;;;;;5073829;28;20028;-66
2022/03/13 10:42:48;;;;;;;11.57;5.68;;;13.50;39.00;;;;;;5074906;28;20013;-71
2022/03/13 10:45:49;;;;;;;8.90;5.65;;;13.60;39.20;;;;;;5074821;28;20024;-67
2022/03/13 10:48:22;;;;;;;10.88;5.70;;;13.70;38.50;;;;;;5074569;28;20017;-67
2022/03/13 10:50:53;;;;;;;9.70;5.03;;;13.90;38.60;;;;;;5075449;28;20105;-67
2022/03/13 10:53:20;;;;;;;8.52;5.32;;;14.00;39.40;;;;;;5074732;28;20114;-66
2022/03/13 10:56:01;;;;;;;9.77;5.22;;;14.00;39.10;;;;;;5073200;28;20039;-67
2022/03/13 10:58:31;;;;;;;10.88;5.63;;;14.00;39.20;;;;;;5074397;28;20028;-69
2022/03/13 11:01:05;;;;;;;8.60;5.28;;;14.00;39.30;;;;;;5074384;28;20088;-69
2022/03/13 11:03:51;;;;;;;13.68;6.43;;;14.10;39.00;;;;;;5074440;28;20040;-66
2022/03/13 11:06:17;;;;;;;10.65;5.32;;;14.10;38.00;;;;;;5074348;28;20039;-66
2022/03/13 11:08:43;;;;;;;8.60;4.75;;;14.20;39.20;;;;;;5074505;28;20020;-69
2022/03/13 11:11:10;;;;;;;10.25;5.35;;;14.30;39.00;;;;;;5074371;28;20035;-67
2022/03/13 11:13:41;;;;;;;9.20;5.40;;;14.40;39.00;;;;;;5074113;28;20024;-66
2022/03/13 11:16:09;;;;;;;8.45;5.53;;;14.40;38.80;;;;;;5074292;28;20035;-66
2022/03/13 11:18:37;;;;;;;10.43;5.60;;;14.40;39.00;;;;;;5072771;28;20473;-68
2022/03/13 11:21:06;;;;;;;9.00;5.97;;;14.40;38.70;;;;;;5073186;28;20028;-67
2022/03/13 11:23:36;;;;;;;8.93;5.18;;;14.50;38.50;;;;;;5074314;28;20019;-67
2022/03/13 11:26:02;;;;;;;9.95;5.50;;;14.50;38.60;;;;;;5074171;28;20469;-67
2022/03/13 11:28:29;;;;;;;7.45;5.10;;;14.50;38.70;;;;;;5074071;28;20031;-66
2022/03/13 11:30:56;;;;;;;9.65;6.03;;;14.60;38.40;;;;;;5074265;28;20024;-67
2022/03/13 11:33:44;;;;;;;9.48;5.95;;;14.80;38.70;;;;;;5074028;28;20028;-67
2022/03/13 11:36:31;;;;;;;8.27;5.55;;;14.80;38.20;;;;;;5074278;28;20021;-67
2022/03/13 11:39:06;;;;;;;10.00;5.65;;;14.90;36.90;;;;;;5073726;28;20021;-72
2022/03/13 11:41:39;;;;;;;12.77;6.07;;;14.90;38.20;;;;;;5074009;28;20037;-71
2022/03/13 11:44:23;;;;;;;9.25;5.70;;;15.00;38.90;;;;;;5074466;28;20032;-74
2022/03/13 11:46:55;;;;;;;9.57;5.70;;;15.20;38.10;;;;;;5072829;28;20036;-69
2022/03/13 11:49:29;;;;;;;8.75;5.18;;;15.30;38.30;;;;;;5074008;28;20108;-72
2022/03/13 11:52:09;;;;;;;8.55;5.28;;;15.40;38.10;;;;;;5074123;28;20028;-70
2022/03/13 11:55:10;;;;;;;8.73;5.25;;;15.40;37.50;;;;;;5074184;28;20470;-75
2022/03/13 11:57:50;;;;;;;8.65;5.05;;;15.50;37.50;;;;;;5074114;28;20052;-71
2022/03/13 12:00:16;;;;;;;8.35;5.32;;;15.50;36.00;;;;;;5073638;28;20109;-66
2022/03/13 12:02:42;;;;;;;7.85;4.82;;;15.50;37.50;;;;;;5073720;28;20037;-74
2022/03/13 12:05:26;;;;;;;7.80;5.75;;;15.60;37.50;;;;;;5073732;28;20032;-67
2022/03/13 12:07:55;;;;;;;;;;;15.70;37.40;;;;;;5075010;28;20111;-76
2022/03/13 12:10:47;;;;;;;10.38;5.05;;;15.70;35.50;;;;;;5074997;28;19904;-79
2022/03/13 12:13:20;;;;;;;8.25;4.38;;;15.90;36.50;;;;;;5074644;28;20070;-71
2022/03/13 12:15:47;;;;;;;10.80;5.33;;;15.90;36.90;;;;;;5076303;28;20473;-67
2022/03/13 12:18:16;;;;;;;7.57;4.97;;;16.00;36.90;;;;;;5076171;28;20112;-70
2022/03/13 12:20:46;;;;;;;6.90;4.20;;;16.10;36.30;;;;;;5075192;28;20055;-67
2022/03/13 12:23:34;;;;;;;9.38;4.65;;;16.10;36.20;;;;;;5073967;28;20017;-70
2022/03/13 12:26:22;;;;;;;12.32;5.05;;;16.30;35.10;;;;;;5073250;28;20056;-69
2022/03/13 12:28:49;;;;;;;7.60;4.60;;;16.40;35.10;;;;;;5072992;28;20082;-67
2022/03/13 12:31:18;;;;;;;7.75;4.50;;;16.50;36.30;;;;;;5073192;28;20426;-67
2022/03/13 12:33:51;;;;;;;11.45;4.57;;;16.60;34.30;;;;;;5072924;28;20032;-66
2022/03/13 12:36:19;;;;;;;8.55;4.35;;;16.60;35.40;;;;;;5073242;28;20035;-68
2022/03/13 12:38:49;;;;;;;10.95;5.00;;;16.70;35.30;;;;;;5071701;28;20040;-70
2022/03/13 12:41:15;;;;;;;8.43;4.93;;;16.70;35.40;;;;;;5073068;28;20041;-70
2022/03/13 12:44:02;;;;;;;8.85;4.72;;;16.80;35.50;;;;;;5072930;28;20059;-66
2022/03/13 12:46:30;;;;;;;7.65;4.85;;;16.70;33.70;;;;;;5073155;28;20035;-67
2022/03/13 12:48:56;;;;;;;8.07;4.75;;;16.80;35.60;;;;;;5071540;28;20017;-66
2022/03/13 12:51:44;;;;;;;8.63;4.80;;;16.80;35.10;;;;;;5073015;28;20108;-67
2022/03/13 12:54:16;;;;;;;9.63;5.53;;;16.90;33.90;;;;;;5072839;28;20174;-66
2022/03/13 12:56:55;;;;;;;8.25;5.05;;;16.90;35.70;;;;;;5072632;28;20048;-67